createdAt,value
2022-09-14T00:01:36.661Z,100796.55
2022-09-14T00:04:11.708Z,100801.00
2022-09-14T00:06:40.364Z,100795.79
2022-09-14T00:09:10.813Z,100794.33
2022-09-14T00:11:38.433Z,100797.05
2022-09-14T00:14:06.240Z,100791.89
2022-09-14T00:16:37.795Z,100790.11
2022-09-14T00:19:25.186Z,100793.45
2022-09-14T00:21:57.666Z,100788.82
2022-09-14T00:24:27.740Z,100786.67
2022-09-14T00:26:55.167Z,100784.06
2022-09-14T00:29:23.690Z,100778.73
2022-09-14T00:31:51.662Z,100779.47
2022-09-14T00:34:18.994Z,100778.86
2022-09-14T00:36:50.046Z,100783.54
2022-09-14T00:39:20.993Z,100790.59
2022-09-14T00:41:49.508Z,100794.61
2022-09-14T00:44:16.892Z,100794.82
2022-09-14T00:46:50.356Z,100792.30
2022-09-14T00:49:30.820Z,100789.59
2022-09-14T00:52:20.362Z,100786.86
2022-09-14T00:55:08.767Z,100789.45
2022-09-14T00:57:41.069Z,100779.06
2022-09-14T01:00:11.022Z,100774.01
2022-09-14T01:02:39.709Z,100772.41
2022-09-14T01:05:08.730Z,100777.27
2022-09-14T01:08:20.621Z,100774.46
2022-09-14T01:11:16.197Z,100775.05
2022-09-14T01:14:16.723Z,100771.04
2022-09-14T01:16:53.217Z,100765.69
2022-09-14T01:20:25.505Z,100762.33
2022-09-14T01:23:45.015Z,100762.50
2022-09-14T01:26:59.987Z,100764.27
2022-09-14T01:29:47.599Z,100758.13
2022-09-14T01:32:30.345Z,100755.17
2022-09-14T01:35:31.147Z,100749.29
2022-09-14T01:38:13.673Z,100747.83
2022-09-14T01:40:48.828Z,100742.75
2022-09-14T01:43:24.849Z,100743.95
2022-09-14T01:46:00.819Z,100745.20
2022-09-14T01:48:44.791Z,100746.27
2022-09-14T01:51:17.753Z,100742.19
2022-09-14T01:53:49.976Z,100745.16
2022-09-14T01:56:23.386Z,100746.76
2022-09-14T01:59:13.335Z,100745.58
2022-09-14T02:02:03.676Z,100731.70
2022-09-14T02:04:57.556Z,100726.52
2022-09-14T02:07:27.489Z,100717.88
2022-09-14T02:09:55.036Z,100718.73
2022-09-14T02:12:23.532Z,100719.64
2022-09-14T02:14:52.004Z,100719.55
2022-09-14T02:17:19.924Z,100728.95
2022-09-14T02:19:59.521Z,100727.39
2022-09-14T02:22:29.141Z,100731.76
2022-09-14T02:24:57.075Z,100731.61
2022-09-14T02:27:25.056Z,100729.80
2022-09-14T02:29:53.364Z,100728.73
2022-09-14T02:32:33.280Z,100730.54
2022-09-14T02:35:47.056Z,100735.17
2022-09-14T02:38:28.901Z,100730.16
2022-09-14T02:41:39.469Z,100721.13
2022-09-14T02:44:28.284Z,100724.35
2022-09-14T02:47:03.505Z,100726.80
2022-09-14T02:50:20.343Z,100729.22
2022-09-14T02:53:10.169Z,100728.38
2022-09-14T02:55:44.024Z,100722.50
2022-09-14T02:58:14.022Z,100726.24
2022-09-14T03:00:47.927Z,100729.27
2022-09-14T03:03:20.434Z,100728.53
2022-09-14T03:05:47.972Z,100727.67
2022-09-14T03:08:15.625Z,100724.10
2022-09-14T03:10:44.184Z,100731.37
2022-09-14T03:13:12.300Z,100729.11
2022-09-14T03:15:39.919Z,100727.75
2022-09-14T03:18:12.276Z,100729.77
2022-09-14T03:20:42.212Z,100727.92
2022-09-14T03:23:13.791Z,100727.52
2022-09-14T03:25:43.980Z,100724.44
2022-09-14T03:28:12.566Z,100724.35
2022-09-14T03:30:39.901Z,100727.13
2022-09-14T03:33:07.218Z,100730.84
2022-09-14T03:35:34.535Z,100734.04
2022-09-14T03:38:02.872Z,100732.11
2022-09-14T03:40:30.542Z,100733.64
2022-09-14T03:42:58.167Z,100732.67
2022-09-14T03:45:25.581Z,100732.73
2022-09-14T03:47:53.006Z,100735.86
2022-09-14T03:50:20.393Z,100736.20
2022-09-14T03:52:47.782Z,100734.23
2022-09-14T03:55:15.549Z,100730.17
2022-09-14T03:57:42.846Z,100731.59
2022-09-14T04:00:11.256Z,100730.24
2022-09-14T04:02:40.279Z,100728.58
2022-09-14T04:05:08.450Z,100730.70
2022-09-14T04:07:35.800Z,100731.48
2022-09-14T04:10:05.297Z,100733.16
2022-09-14T04:12:39.236Z,100730.83
2022-09-14T04:15:08.141Z,100728.21
2022-09-14T04:17:35.655Z,100729.11
2022-09-14T04:20:03.496Z,100731.82
2022-09-14T04:22:30.877Z,100727.27
2022-09-14T04:24:58.095Z,100730.81
2022-09-14T04:27:25.359Z,100730.95
2022-09-14T04:29:52.725Z,100732.90
2022-09-14T04:32:20.032Z,100736.50
2022-09-14T04:34:49.172Z,100738.03
2022-09-14T04:37:17.648Z,100737.49
2022-09-14T04:39:44.974Z,100735.38
2022-09-14T04:42:12.314Z,100741.05
2022-09-14T04:44:39.707Z,100742.80
2022-09-14T04:47:06.914Z,100744.65
2022-09-14T04:49:34.253Z,100746.59
2022-09-14T04:52:01.924Z,100748.78
2022-09-14T04:54:29.220Z,100749.34
2022-09-14T04:56:56.492Z,100749.24
2022-09-14T04:59:23.857Z,100748.86
2022-09-14T05:01:51.617Z,100750.75
2022-09-14T05:04:20.586Z,100749.39
2022-09-14T05:06:50.252Z,100745.56
2022-09-14T05:09:18.883Z,100741.48
2022-09-14T05:11:46.481Z,100739.83
2022-09-14T05:14:14.469Z,100738.92
2022-09-14T05:16:43.134Z,100739.61
2022-09-14T05:19:17.832Z,100742.80
2022-09-14T05:21:45.741Z,100741.66
2022-09-14T05:24:17.231Z,100738.98
2022-09-14T05:26:46.183Z,100739.65
2022-09-14T05:29:17.121Z,100740.14
2022-09-14T05:31:45.092Z,100741.41
2022-09-14T05:34:14.237Z,100744.98
2022-09-14T05:36:43.170Z,100740.40
2022-09-14T05:39:10.719Z,100741.11
2022-09-14T05:41:38.171Z,100745.29
2022-09-14T05:44:06.292Z,100744.17
2022-09-14T05:46:34.267Z,100747.27
2022-09-14T05:49:01.713Z,100747.70
2022-09-14T05:51:29.560Z,100750.74
2022-09-14T05:53:58.685Z,100748.38
2022-09-14T05:56:29.176Z,100752.23
2022-09-14T05:58:57.737Z,100751.55
2022-09-14T06:01:31.294Z,100752.19
2022-09-14T06:04:01.858Z,100749.64
2022-09-14T06:06:30.963Z,100749.87
2022-09-14T06:08:58.697Z,100752.46
2022-09-14T06:11:30.717Z,100753.30
2022-09-14T06:13:58.392Z,100750.65
2022-09-14T06:16:27.437Z,100750.20
2022-09-14T06:18:56.891Z,100748.15
2022-09-14T06:21:30.145Z,100745.95
2022-09-14T06:23:57.406Z,100750.48
2022-09-14T06:26:25.630Z,100753.36
2022-09-14T06:28:53.015Z,100754.23
2022-09-14T06:31:22.185Z,100755.48
2022-09-14T06:33:51.197Z,100752.69
2022-09-14T06:36:21.913Z,100747.89
2022-09-14T06:38:49.673Z,100751.42
2022-09-14T06:41:21.298Z,100752.45
2022-09-14T06:43:49.497Z,100752.05
2022-09-14T06:46:19.786Z,100750.36
2022-09-14T06:48:51.104Z,100751.52
2022-09-14T06:51:28.674Z,100750.84
2022-09-14T06:54:01.135Z,100749.55
2022-09-14T06:56:31.617Z,100753.14
2022-09-14T06:58:59.441Z,100751.70
2022-09-14T07:01:27.309Z,100748.89
2022-09-14T07:03:54.779Z,100748.34
2022-09-14T07:06:25.605Z,100747.79
2022-09-14T07:08:54.064Z,100745.80
2022-09-14T07:11:25.339Z,100740.65
2022-09-14T07:13:54.393Z,100739.70
2022-09-14T07:16:21.634Z,100741.08
2022-09-14T07:18:55.643Z,100740.84
2022-09-14T07:21:23.428Z,100733.77
2022-09-14T07:23:51.391Z,100732.60
2022-09-14T07:26:31.294Z,100729.25
2022-09-14T07:29:04.824Z,100730.30
2022-09-14T07:31:38.087Z,100734.35
2022-09-14T07:34:06.102Z,100729.25
2022-09-14T07:36:35.962Z,100724.58
2022-09-14T07:39:08.643Z,100720.30
2022-09-14T07:41:36.415Z,100712.09
2022-09-14T07:44:06.835Z,100707.77
2022-09-14T07:46:40.434Z,100706.56
2022-09-14T07:49:08.521Z,100702.40
2022-09-14T07:51:36.617Z,100689.97
2022-09-14T07:54:06.624Z,100681.46
2022-09-14T07:56:34.781Z,100678.42
2022-09-14T08:01:51.366Z,100664.23
2022-09-14T08:04:18.734Z,100660.52
2022-09-14T08:06:45.869Z,100655.72
2022-09-14T08:09:14.179Z,100655.42
2022-09-14T08:11:42.617Z,100655.25
2022-09-14T08:14:13.669Z,100653.97
2022-09-14T08:16:42.113Z,100652.24
2022-09-14T08:19:16.502Z,100649.89
2022-09-14T08:21:46.909Z,100654.08
2022-09-14T08:24:21.061Z,100663.66
2022-09-14T08:26:48.963Z,100671.06
2022-09-14T08:29:17.996Z,100675.25
2022-09-14T08:31:47.440Z,100683.19
2022-09-14T08:34:16.752Z,100683.79
2022-09-14T08:36:46.679Z,100685.02
2022-09-14T08:39:16.786Z,100692.09
2022-09-14T08:41:52.682Z,100692.74
2022-09-14T08:44:30.019Z,100692.46
2022-09-14T08:47:22.005Z,100688.58
2022-09-14T08:50:02.523Z,100685.90
2022-09-14T08:52:46.535Z,100684.14
2022-09-14T08:55:46.022Z,100683.86
2022-09-14T08:58:52.373Z,100680.85
2022-09-14T09:01:35.513Z,100675.52
2022-09-14T09:04:51.625Z,100667.58
2022-09-14T09:07:32.652Z,100664.19
2022-09-14T09:10:00.927Z,100658.52
2022-09-14T09:12:40.203Z,100652.84
2022-09-14T09:15:28.913Z,100653.56
2022-09-14T09:18:08.014Z,100659.44
2022-09-14T09:20:54.813Z,100655.34
2022-09-14T09:23:23.843Z,100651.03
2022-09-14T09:26:05.933Z,100650.33
2022-09-14T09:28:34.322Z,100653.43
2022-09-14T09:31:05.946Z,100661.06
2022-09-14T09:33:50.456Z,100657.13
2022-09-14T09:36:19.756Z,100654.81
2022-09-14T09:38:46.901Z,100648.09
2022-09-14T09:41:23.288Z,100647.59
2022-09-14T09:44:01.378Z,100648.56
2022-09-14T09:46:34.521Z,100651.49
2022-09-14T09:49:14.712Z,100649.36
2022-09-14T09:51:42.281Z,100640.08
2022-09-14T09:54:24.953Z,100640.69
2022-09-14T09:56:56.313Z,100639.45
2022-09-14T09:59:43.679Z,100634.95
2022-09-14T10:02:31.842Z,100630.08
2022-09-14T10:05:06.819Z,100634.36
2022-09-14T10:07:37.961Z,100639.61
2022-09-14T10:10:06.643Z,100641.75
2022-09-14T10:12:36.765Z,100639.40
2022-09-14T10:15:15.788Z,100635.73
2022-09-14T10:18:10.935Z,100627.53
2022-09-14T10:20:40.660Z,100628.45
2022-09-14T10:23:20.176Z,100632.34
2022-09-14T10:25:53.991Z,100632.17
2022-09-14T10:28:33.432Z,100627.02
2022-09-14T10:31:18.726Z,100623.66
2022-09-14T10:33:58.269Z,100614.33
2022-09-14T10:36:32.112Z,100607.53
2022-09-14T10:39:53.985Z,100604.45
2022-09-14T10:42:35.069Z,100602.89
2022-09-14T10:45:21.944Z,100602.52
2022-09-14T10:48:22.501Z,100598.65
2022-09-14T10:51:34.627Z,100594.95
2022-09-14T10:54:32.214Z,100601.13
2022-09-14T10:57:26.790Z,100598.02
2022-09-14T10:59:57.272Z,100589.10
2022-09-14T11:02:44.601Z,100589.61
2022-09-14T11:05:37.078Z,100593.34
2022-09-14T11:08:22.688Z,100594.52
2022-09-14T11:11:37.372Z,100595.80
2022-09-14T11:14:23.373Z,100596.61
2022-09-14T11:17:26.106Z,100601.40
2022-09-14T11:20:20.701Z,100603.05
2022-09-14T11:23:15.558Z,100602.20
2022-09-14T11:25:48.526Z,100594.27
2022-09-14T11:28:26.988Z,100592.13
2022-09-14T11:30:55.676Z,100589.78
2022-09-14T11:33:35.124Z,100586.70
2022-09-14T11:36:33.222Z,100580.80
2022-09-14T11:39:13.000Z,100579.62
2022-09-14T11:41:59.809Z,100573.59
2022-09-14T11:44:39.561Z,100566.35
2022-09-14T11:47:17.996Z,100564.02
2022-09-14T11:49:52.043Z,100563.56
2022-09-14T11:52:22.984Z,100554.83
2022-09-14T11:54:50.888Z,100554.30
2022-09-14T11:57:34.103Z,100555.72
2022-09-14T12:00:09.972Z,100551.61
2022-09-14T12:02:37.332Z,100545.02
2022-09-14T12:05:04.622Z,100535.95
2022-09-14T12:07:46.719Z,100534.13
2022-09-14T12:10:14.024Z,100528.84
2022-09-14T12:12:46.481Z,100531.13
2022-09-14T12:15:26.070Z,100530.20
2022-09-14T12:18:05.683Z,100527.75
2022-09-14T12:20:41.616Z,100529.88
2022-09-14T12:23:41.677Z,100535.38
2022-09-14T12:26:32.156Z,100529.33
2022-09-14T12:29:14.130Z,100520.55
2022-09-14T12:31:44.421Z,100520.91
2022-09-14T12:34:17.646Z,100525.91
2022-09-14T12:36:45.025Z,100521.46
2022-09-14T12:39:30.598Z,100513.05
2022-09-14T12:42:02.337Z,100505.79
2022-09-14T12:44:41.620Z,100496.80
2022-09-14T12:47:24.392Z,100493.20
2022-09-14T12:50:25.267Z,100487.96
2022-09-14T12:53:29.632Z,100483.74
2022-09-14T12:56:03.964Z,100479.23
2022-09-14T12:59:09.794Z,100474.67
2022-09-14T13:02:29.935Z,100469.26
2022-09-14T13:04:58.878Z,100462.16
2022-09-14T13:07:35.730Z,100464.97
2022-09-14T13:10:06.284Z,100465.30
2022-09-14T13:12:33.495Z,100462.61
2022-09-14T13:15:24.793Z,100462.84
2022-09-14T13:18:06.139Z,100464.41
2022-09-14T13:20:35.509Z,100465.14
2022-09-14T13:23:02.895Z,100459.29
2022-09-14T13:25:37.608Z,100461.72
2022-09-14T13:28:15.159Z,100464.32
2022-09-14T13:30:42.646Z,100465.56
2022-09-14T13:33:17.248Z,100464.52
2022-09-14T13:35:51.584Z,100462.80
2022-09-14T13:38:31.671Z,100464.36
2022-09-14T13:41:16.968Z,100472.17
2022-09-14T13:43:47.334Z,100472.36
2022-09-14T13:46:19.662Z,100477.70
2022-09-14T13:48:48.093Z,100475.72
2022-09-14T13:51:16.013Z,100480.56
2022-09-14T13:53:54.692Z,100478.90
2022-09-14T13:56:27.672Z,100475.84
2022-09-14T13:59:07.546Z,100472.49
2022-09-14T14:01:50.406Z,100473.41
2022-09-14T14:04:33.110Z,100473.78
2022-09-14T14:07:06.912Z,100469.05
2022-09-14T14:09:52.097Z,100464.19
2022-09-14T14:12:33.110Z,100458.42
2022-09-14T14:15:05.818Z,100457.10
2022-09-14T14:17:37.143Z,100457.04
2022-09-14T14:20:26.018Z,100458.43
2022-09-14T14:23:19.583Z,100460.95
2022-09-14T14:25:53.970Z,100460.83
2022-09-14T14:28:27.487Z,100463.10
2022-09-14T14:30:57.817Z,100462.29
2022-09-14T14:33:26.075Z,100460.77
2022-09-14T14:35:56.348Z,100459.27
2022-09-14T14:38:24.557Z,100460.67
2022-09-14T14:40:54.692Z,100464.21
2022-09-14T14:43:27.153Z,100463.02
2022-09-14T14:46:01.845Z,100462.18
2022-09-14T14:48:32.352Z,100462.29
2022-09-14T14:51:00.472Z,100461.08
2022-09-14T14:53:27.810Z,100460.64
2022-09-14T14:55:55.222Z,100455.58
2022-09-14T14:58:23.322Z,100456.58
2022-09-14T15:00:51.472Z,100458.49
2022-09-14T15:03:19.029Z,100459.13
2022-09-14T15:05:47.715Z,100458.16
2022-09-14T15:08:19.391Z,100456.61
2022-09-14T15:10:48.091Z,100456.27
2022-09-14T15:13:15.378Z,100451.55
2022-09-14T15:15:42.982Z,100447.23
2022-09-14T15:18:10.364Z,100443.35
2022-09-14T15:20:38.087Z,100445.05
2022-09-14T15:23:05.571Z,100444.70
2022-09-14T15:25:32.993Z,100442.38
2022-09-14T15:28:00.409Z,100439.94
2022-09-14T15:30:28.197Z,100437.67
2022-09-14T15:32:58.063Z,100433.30
2022-09-14T15:35:25.446Z,100430.75
2022-09-14T15:37:53.004Z,100430.08
2022-09-14T15:40:20.451Z,100434.52
2022-09-14T15:42:47.828Z,100434.45
2022-09-14T15:45:15.263Z,100432.86
2022-09-14T15:47:43.150Z,100437.54
2022-09-14T15:50:11.384Z,100435.98
2022-09-14T15:52:39.231Z,100428.70
2022-09-14T15:55:09.299Z,100430.63
2022-09-14T15:57:37.633Z,100432.34
2022-09-14T16:00:09.619Z,100432.24
2022-09-14T16:02:42.764Z,100430.26
2022-09-14T16:05:10.503Z,100428.08
2022-09-14T16:07:37.850Z,100425.48
2022-09-14T16:10:06.436Z,100423.55
2022-09-14T16:12:34.137Z,100422.10
2022-09-14T16:15:01.713Z,100420.21
2022-09-14T16:17:29.299Z,100420.23
2022-09-14T16:19:56.679Z,100420.23
2022-09-14T16:22:24.805Z,100416.98
2022-09-14T16:24:52.198Z,100412.19
2022-09-14T16:27:20.044Z,100409.98
2022-09-14T16:29:47.534Z,100410.36
2022-09-14T16:32:15.192Z,100407.55
2022-09-14T16:34:46.816Z,100408.29
2022-09-14T16:37:15.926Z,100407.55
2022-09-14T16:39:43.677Z,100410.71
2022-09-14T16:42:11.017Z,100411.01
2022-09-14T16:44:38.495Z,100407.83
2022-09-14T16:47:06.041Z,100404.54
2022-09-14T16:49:33.334Z,100402.41
2022-09-14T16:52:00.768Z,100398.33
2022-09-14T16:54:31.279Z,100405.41
2022-09-14T16:57:00.675Z,100407.20
2022-09-14T16:59:28.345Z,100403.35
2022-09-14T17:01:56.054Z,100409.73
2022-09-14T17:04:24.864Z,100400.65
2022-09-14T17:06:52.894Z,100402.94
2022-09-14T17:09:27.402Z,100408.02
2022-09-14T17:11:56.622Z,100409.61
2022-09-14T17:14:30.568Z,100414.26
2022-09-14T17:16:59.274Z,100413.07
2022-09-14T17:19:27.420Z,100411.17
2022-09-14T17:21:54.857Z,100406.98
2022-09-14T17:24:22.843Z,100403.17
2022-09-14T17:26:50.342Z,100401.86
2022-09-14T17:29:18.280Z,100399.64
2022-09-14T17:31:46.042Z,100394.05
2022-09-14T17:34:17.731Z,100393.83
2022-09-14T17:36:45.181Z,100389.67
2022-09-14T17:39:13.816Z,100378.82
2022-09-14T17:41:42.276Z,100378.98
2022-09-14T17:44:12.485Z,100380.69
2022-09-14T17:46:48.570Z,100374.10
2022-09-14T17:49:21.752Z,100373.41
2022-09-14T17:51:50.423Z,100376.55
2022-09-14T17:54:19.005Z,100376.66
2022-09-14T17:56:46.805Z,100373.11
2022-09-14T17:59:20.509Z,100373.17
2022-09-14T18:01:49.031Z,100373.11
2022-09-14T18:04:16.991Z,100373.31
2022-09-14T18:06:47.718Z,100380.58
2022-09-14T18:09:18.850Z,100389.60
2022-09-14T18:11:46.958Z,100396.46
2022-09-14T18:14:14.858Z,100398.02
2022-09-14T18:16:43.743Z,100403.81
2022-09-14T18:19:11.431Z,100409.11
2022-09-14T18:21:39.125Z,100407.17
2022-09-14T18:24:06.903Z,100410.30
2022-09-14T18:26:34.792Z,100417.20
2022-09-14T18:29:03.185Z,100418.81
2022-09-14T18:31:30.629Z,100420.42
2022-09-14T18:34:00.250Z,100424.41
2022-09-14T18:36:29.503Z,100423.98
2022-09-14T18:38:58.524Z,100427.13
2022-09-14T18:41:29.204Z,100433.15
2022-09-14T18:43:57.401Z,100439.67
2022-09-14T18:46:28.155Z,100443.91
2022-09-14T18:49:00.803Z,100442.10
2022-09-14T18:51:30.441Z,100442.62
2022-09-14T18:54:04.678Z,100442.73
2022-09-14T18:56:33.568Z,100444.30
2022-09-14T18:59:03.693Z,100442.14
2022-09-14T19:01:34.598Z,100443.31
2022-09-14T19:04:03.289Z,100446.13
2022-09-14T19:06:31.065Z,100450.35
2022-09-14T19:08:58.331Z,100450.09
2022-09-14T19:11:27.766Z,100449.45
2022-09-14T19:14:01.164Z,100448.19
2022-09-14T19:16:30.064Z,100443.41
2022-09-14T19:18:57.881Z,100445.23
2022-09-14T19:21:28.054Z,100444.30
2022-09-14T19:24:04.789Z,100447.22
2022-09-14T19:26:45.030Z,100443.45
2022-09-14T19:29:16.346Z,100445.46
2022-09-14T19:31:44.145Z,100444.75
2022-09-14T19:34:11.657Z,100444.42
2022-09-14T19:36:39.084Z,100443.31
2022-09-14T19:39:06.600Z,100442.67
2022-09-14T19:41:34.849Z,100441.13
2022-09-14T19:44:03.076Z,100435.21
2022-09-14T19:46:33.215Z,100435.48
2022-09-14T19:49:00.746Z,100436.39
2022-09-14T19:51:30.240Z,100431.44
2022-09-14T19:53:59.963Z,100429.55
2022-09-14T19:56:31.592Z,100427.94
2022-09-14T19:59:01.441Z,100433.55
2022-09-14T20:01:31.436Z,100436.17
2022-09-14T20:03:58.740Z,100439.69
2022-09-14T20:06:32.883Z,100436.24
2022-09-14T20:09:02.764Z,100437.67
2022-09-14T20:11:32.181Z,100438.34
2022-09-14T20:14:04.461Z,100432.75
2022-09-14T20:16:36.411Z,100432.67
2022-09-14T20:19:22.054Z,100435.77
2022-09-14T20:21:51.130Z,100439.55
2022-09-14T20:24:25.700Z,100440.79
2022-09-14T20:26:59.826Z,100442.73
2022-09-14T20:29:30.819Z,100436.97
2022-09-14T20:31:58.786Z,100432.45
2022-09-14T20:34:26.360Z,100427.70
2022-09-14T20:36:55.184Z,100422.17
2022-09-14T20:39:23.511Z,100419.58
2022-09-14T20:41:50.941Z,100412.23
2022-09-14T20:44:22.624Z,100408.86
2022-09-14T20:46:51.153Z,100394.16
2022-09-14T20:49:21.933Z,100391.12
2022-09-14T20:51:52.183Z,100384.78
2022-09-14T20:54:20.340Z,100382.48
2022-09-14T20:56:47.739Z,100381.77
2022-09-14T20:59:18.152Z,100387.14
2022-09-14T21:01:48.831Z,100392.86
2022-09-14T21:04:20.173Z,100390.83
2022-09-14T21:06:52.445Z,100393.07
2022-09-14T21:09:22.856Z,100394.78
2022-09-14T21:11:50.789Z,100394.59
2022-09-14T21:14:19.499Z,100401.38
2022-09-14T21:16:48.982Z,100401.86
2022-09-14T21:19:20.617Z,100403.29
2022-09-14T21:21:49.607Z,100399.96
2022-09-14T21:24:18.898Z,100396.76
2022-09-14T21:26:47.169Z,100394.06
2022-09-14T21:29:19.730Z,100389.98
2022-09-14T21:31:48.258Z,100382.88
2022-09-14T21:34:16.356Z,100377.48
2022-09-14T21:36:47.156Z,100374.33
2022-09-14T21:39:20.986Z,100375.47
2022-09-14T21:41:53.339Z,100375.46
2022-09-14T21:44:23.462Z,100377.70
2022-09-14T21:46:51.179Z,100370.86
2022-09-14T21:49:21.659Z,100368.30
2022-09-14T21:51:49.490Z,100370.34
2022-09-14T21:54:16.867Z,100371.80
2022-09-14T21:56:46.308Z,100373.94
2022-09-14T21:59:17.738Z,100373.29
2022-09-14T22:01:48.441Z,100369.44
2022-09-14T22:04:22.538Z,100362.38
2022-09-14T22:06:50.970Z,100357.92
2022-09-14T22:09:21.140Z,100350.98
2022-09-14T22:11:48.603Z,100348.83
2022-09-14T22:14:26.664Z,100342.63
2022-09-14T22:16:54.275Z,100343.95
2022-09-14T22:19:29.035Z,100342.91
2022-09-14T22:21:56.630Z,100347.60
2022-09-14T22:24:38.560Z,100345.16
2022-09-14T22:27:10.466Z,100343.70
2022-09-14T22:29:40.497Z,100340.78
2022-09-14T22:32:11.511Z,100341.50
2022-09-14T22:34:41.003Z,100344.35
2022-09-14T22:37:08.372Z,100341.21
2022-09-14T22:40:12.579Z,100339.55
2022-09-14T22:42:40.610Z,100341.17
2022-09-14T22:45:08.873Z,100335.95
2022-09-14T22:47:36.172Z,100330.64
2022-09-14T22:50:03.721Z,100325.66
2022-09-14T22:52:31.012Z,100317.88
2022-09-14T22:54:58.320Z,100308.30
2022-09-14T22:57:25.604Z,100300.73
2022-09-14T22:59:53.107Z,100293.80
2022-09-14T23:02:20.504Z,100287.80
2022-09-14T23:04:48.130Z,100285.46
2022-09-14T23:07:15.445Z,100291.45
2022-09-14T23:09:42.756Z,100291.83
2022-09-14T23:12:10.110Z,100293.04
2022-09-14T23:14:37.330Z,100292.39
2022-09-14T23:17:04.761Z,100291.33
2022-09-14T23:19:33.302Z,100294.02
2022-09-14T23:22:02.513Z,100297.55
2022-09-14T23:24:30.541Z,100300.41
2022-09-14T23:26:57.724Z,100296.56
2022-09-14T23:29:25.097Z,100283.50
2022-09-14T23:31:52.427Z,100292.63
2022-09-14T23:34:19.831Z,100292.96
2022-09-14T23:36:47.119Z,100296.73
2022-09-14T23:39:14.398Z,100299.94
2022-09-14T23:41:41.746Z,100296.34
2022-09-14T23:44:12.180Z,100293.65
2022-09-14T23:46:39.684Z,100298.67
2022-09-14T23:49:07.030Z,100301.88
2022-09-14T23:51:34.284Z,100297.58
2022-09-14T23:54:01.546Z,100292.84
2022-09-14T23:56:29.010Z,100293.36
2022-09-14T23:58:56.508Z,100290.20
